createdAt,value
2023-03-10T00:01:29.902Z,13.23
2023-03-10T00:03:03.155Z,13.27
2023-03-10T00:04:36.440Z,13.26
2023-03-10T00:06:12.762Z,13.23
2023-03-10T00:07:46.618Z,13.20
2023-03-10T00:09:19.959Z,13.21
2023-03-10T00:10:53.036Z,13.22
2023-03-10T00:12:28.034Z,13.18
2023-03-10T00:14:01.693Z,13.23
2023-03-10T00:15:35.110Z,13.22
2023-03-10T00:17:08.982Z,13.20
2023-03-10T00:18:42.758Z,13.21
2023-03-10T00:20:16.511Z,13.19
2023-03-10T00:21:50.170Z,13.19
2023-03-10T00:23:23.967Z,13.13
2023-03-10T00:24:57.164Z,13.07
2023-03-10T00:26:30.776Z,13.00
2023-03-10T00:28:04.818Z,13.03
2023-03-10T00:29:37.968Z,13.01
2023-03-10T00:31:13.846Z,12.93
2023-03-10T00:32:47.198Z,12.88
2023-03-10T00:34:20.471Z,12.86
2023-03-10T00:36:02.221Z,12.88
2023-03-10T00:37:39.363Z,12.85
2023-03-10T00:39:11.997Z,12.80
2023-03-10T00:40:45.236Z,12.78
2023-03-10T00:42:18.450Z,12.78
2023-03-10T00:43:53.063Z,12.74
2023-03-10T00:45:26.442Z,12.73
2023-03-10T00:46:59.593Z,12.71
2023-03-10T00:48:33.405Z,12.64
2023-03-10T00:50:07.402Z,12.62
2023-03-10T00:51:40.665Z,12.53
2023-03-10T00:53:15.345Z,12.48
2023-03-10T00:54:48.564Z,12.41
2023-03-10T00:56:23.871Z,12.39
2023-03-10T00:57:57.158Z,12.37
2023-03-10T00:59:40.433Z,12.38
2023-03-10T01:01:23.483Z,12.27
2023-03-10T01:02:57.625Z,12.24
2023-03-10T01:04:31.703Z,12.22
2023-03-10T01:06:05.270Z,12.25
2023-03-10T01:07:38.514Z,12.24
2023-03-10T01:09:13.189Z,12.21
2023-03-10T01:10:46.792Z,12.20
2023-03-10T01:12:19.909Z,12.19
2023-03-10T01:13:53.917Z,12.15
2023-03-10T01:15:27.250Z,12.15
2023-03-10T01:17:00.807Z,12.13
2023-03-10T01:18:33.900Z,12.12
2023-03-10T01:20:09.832Z,12.08
2023-03-10T01:21:43.354Z,12.03
2023-03-10T01:23:19.032Z,12.00
2023-03-10T01:24:53.522Z,11.94
2023-03-10T01:26:25.915Z,11.89
2023-03-10T01:27:59.209Z,11.81
2023-03-10T01:29:32.527Z,11.82
2023-03-10T01:31:08.057Z,11.78
2023-03-10T01:32:42.083Z,11.69
2023-03-10T01:34:15.481Z,11.67
2023-03-10T01:35:48.928Z,11.67
2023-03-10T01:37:22.357Z,11.55
2023-03-10T01:38:57.035Z,11.45
2023-03-10T01:40:31.770Z,11.42
2023-03-10T01:42:06.110Z,11.37
2023-03-10T01:43:40.822Z,11.30
2023-03-10T01:45:47.363Z,11.26
2023-03-10T01:47:22.572Z,11.14
2023-03-10T01:48:56.626Z,11.11
2023-03-10T01:50:30.244Z,11.14
2023-03-10T01:52:08.878Z,11.14
2023-03-10T01:53:42.434Z,11.11
2023-03-10T01:55:20.902Z,11.09
2023-03-10T01:56:57.530Z,11.06
2023-03-10T01:58:39.678Z,11.03
2023-03-10T02:00:15.028Z,11.02
2023-03-10T02:01:53.688Z,11.00
2023-03-10T02:03:30.131Z,10.98
2023-03-10T02:05:04.206Z,10.97
2023-03-10T02:06:41.905Z,10.95
2023-03-10T02:08:16.097Z,10.96
2023-03-10T02:09:51.944Z,10.93
2023-03-10T02:11:26.778Z,10.89
2023-03-10T02:13:01.397Z,10.82
2023-03-10T02:14:35.900Z,10.80
2023-03-10T02:16:10.053Z,10.77
2023-03-10T02:17:43.440Z,10.77
2023-03-10T02:19:30.938Z,10.76
2023-03-10T02:21:14.164Z,10.73
2023-03-10T02:22:47.605Z,10.68
2023-03-10T02:24:27.676Z,10.64
2023-03-10T02:26:07.103Z,10.54
2023-03-10T02:27:42.589Z,10.51
2023-03-10T02:29:21.551Z,10.47
2023-03-10T02:30:56.065Z,10.48
2023-03-10T02:32:32.839Z,10.45
2023-03-10T02:34:07.247Z,10.45
2023-03-10T02:35:40.857Z,10.45
2023-03-10T02:37:22.613Z,10.48
2023-03-10T02:38:56.493Z,10.49
2023-03-10T02:40:37.566Z,10.52
2023-03-10T02:42:17.343Z,10.52
2023-03-10T02:43:52.092Z,10.51
2023-03-10T02:45:32.837Z,10.48
2023-03-10T02:47:06.384Z,10.46
2023-03-10T02:48:40.854Z,10.45
2023-03-10T02:50:18.634Z,10.41
2023-03-10T02:51:51.905Z,10.38
2023-03-10T02:53:28.526Z,10.35
2023-03-10T02:55:01.795Z,10.31
2023-03-10T02:56:36.458Z,10.27
2023-03-10T02:58:10.231Z,10.23
2023-03-10T02:59:43.782Z,10.12
2023-03-10T03:01:17.297Z,9.89
2023-03-10T03:02:51.178Z,9.81
2023-03-10T03:04:24.401Z,9.71
2023-03-10T03:05:57.903Z,9.65
2023-03-10T03:07:31.349Z,9.57
2023-03-10T03:09:05.344Z,9.47
2023-03-10T03:10:40.051Z,9.31
2023-03-10T03:12:14.516Z,9.32
2023-03-10T03:13:46.866Z,9.31
2023-03-10T03:15:22.005Z,9.35
2023-03-10T03:16:55.314Z,9.39
2023-03-10T03:18:28.846Z,9.33
2023-03-10T03:20:02.356Z,9.30
2023-03-10T03:21:35.631Z,9.27
2023-03-10T03:23:08.981Z,9.24
2023-03-10T03:24:42.225Z,9.25
2023-03-10T03:26:17.025Z,9.26
2023-03-10T03:27:51.138Z,9.28
2023-03-10T03:29:24.426Z,9.32
2023-03-10T03:31:02.004Z,9.31
2023-03-10T03:32:37.628Z,9.28
2023-03-10T03:34:11.700Z,9.20
2023-03-10T03:35:44.666Z,9.13
2023-03-10T03:37:18.171Z,9.07
2023-03-10T03:38:51.509Z,9.05
2023-03-10T03:40:26.980Z,9.09
2023-03-10T03:42:01.110Z,9.12
2023-03-10T03:43:39.553Z,9.17
2023-03-10T03:45:14.920Z,9.16
2023-03-10T03:46:50.252Z,9.09
2023-03-10T03:48:23.500Z,8.96
2023-03-10T03:49:57.619Z,8.89
2023-03-10T03:51:30.978Z,8.88
2023-03-10T03:53:05.905Z,8.90
2023-03-10T03:54:40.057Z,8.95
2023-03-10T03:56:13.445Z,8.98
2023-03-10T03:57:49.612Z,9.04
2023-03-10T03:59:22.969Z,9.08
2023-03-10T04:00:56.208Z,9.10
2023-03-10T04:02:31.704Z,9.13
2023-03-10T04:04:05.775Z,9.13
2023-03-10T04:05:39.229Z,9.16
2023-03-10T04:07:12.520Z,9.15
2023-03-10T04:08:45.745Z,9.15
2023-03-10T04:10:21.640Z,9.08
2023-03-10T04:11:54.878Z,9.10
2023-03-10T04:13:29.430Z,9.06
2023-03-10T04:15:02.633Z,9.06
2023-03-10T04:16:35.954Z,9.09
2023-03-10T04:18:12.286Z,8.92
2023-03-10T04:19:49.157Z,9.05
2023-03-10T04:21:25.576Z,9.08
2023-03-10T04:23:02.328Z,9.08
2023-03-10T04:24:39.556Z,9.04
2023-03-10T04:26:13.430Z,9.02
2023-03-10T04:27:47.300Z,9.04
2023-03-10T04:29:19.871Z,9.03
2023-03-10T04:30:53.236Z,8.97
2023-03-10T04:32:30.339Z,8.87
2023-03-10T04:34:05.671Z,8.75
2023-03-10T04:35:40.744Z,8.64
2023-03-10T04:37:14.173Z,8.52
2023-03-10T04:38:48.003Z,8.51
2023-03-10T04:40:22.193Z,8.54
2023-03-10T04:41:54.590Z,8.58
2023-03-10T04:43:27.982Z,8.60
2023-03-10T04:45:01.522Z,8.65
2023-03-10T04:46:35.118Z,8.59
2023-03-10T04:48:09.017Z,8.62
2023-03-10T04:49:43.938Z,8.65
2023-03-10T04:51:19.129Z,8.69
2023-03-10T04:52:56.274Z,8.72
2023-03-10T04:54:33.725Z,8.70
2023-03-10T04:56:10.435Z,8.65
2023-03-10T04:57:45.212Z,8.56
2023-03-10T04:59:21.518Z,8.55
2023-03-10T05:01:03.359Z,8.62
2023-03-10T05:02:40.066Z,8.70
2023-03-10T05:04:13.332Z,8.75
2023-03-10T05:05:47.983Z,8.78
2023-03-10T05:07:21.587Z,8.78
2023-03-10T05:08:55.605Z,8.72
2023-03-10T05:10:30.399Z,8.72
2023-03-10T05:12:02.820Z,8.72
2023-03-10T05:13:39.522Z,8.75
2023-03-10T05:15:13.920Z,8.76
2023-03-10T05:16:48.071Z,8.82
2023-03-10T05:18:21.199Z,8.87
2023-03-10T05:19:55.122Z,8.85
2023-03-10T05:21:29.863Z,8.87
2023-03-10T05:23:04.563Z,8.91
2023-03-10T05:24:38.044Z,8.96
2023-03-10T05:26:13.790Z,9.00
2023-03-10T05:27:47.324Z,9.04
2023-03-10T05:29:21.248Z,9.14
2023-03-10T05:31:02.275Z,9.22
2023-03-10T05:32:36.714Z,9.34
2023-03-10T05:34:10.489Z,9.42
2023-03-10T05:35:43.900Z,9.53
2023-03-10T05:37:19.440Z,9.51
2023-03-10T05:38:53.622Z,9.52
2023-03-10T05:40:27.024Z,9.58
2023-03-10T05:42:00.323Z,9.66
2023-03-10T05:43:36.520Z,9.72
2023-03-10T05:45:12.581Z,9.76
2023-03-10T05:46:46.133Z,9.82
2023-03-10T05:48:19.311Z,9.89
2023-03-10T05:49:53.571Z,9.92
2023-03-10T05:51:26.944Z,9.97
2023-03-10T05:53:04.588Z,10.03
2023-03-10T05:54:38.032Z,10.06
2023-03-10T05:56:13.938Z,10.04
2023-03-10T05:57:49.334Z,9.90
2023-03-10T05:59:23.216Z,9.84
2023-03-10T06:00:58.316Z,9.79
2023-03-10T06:02:31.441Z,9.82
2023-03-10T06:04:05.156Z,9.95
2023-03-10T06:05:38.742Z,10.10
2023-03-10T06:07:12.602Z,10.23
2023-03-10T06:08:47.319Z,10.32
2023-03-10T06:10:20.833Z,10.36
2023-03-10T06:11:54.063Z,10.45
2023-03-10T06:13:27.740Z,10.45
2023-03-10T06:15:01.224Z,10.47
2023-03-10T06:16:34.676Z,10.52
2023-03-10T06:18:07.948Z,10.61
2023-03-10T06:19:41.193Z,10.68
2023-03-10T06:21:15.827Z,10.71
2023-03-10T06:22:49.044Z,10.82
2023-03-10T06:24:23.872Z,10.91
2023-03-10T06:25:58.725Z,11.00
2023-03-10T06:27:31.895Z,11.03
2023-03-10T06:29:05.828Z,11.10
2023-03-10T06:30:39.611Z,11.15
2023-03-10T06:32:12.952Z,11.27
2023-03-10T06:33:46.435Z,11.41
2023-03-10T06:35:20.050Z,11.46
2023-03-10T06:36:53.298Z,11.48
2023-03-10T06:38:26.819Z,11.55
2023-03-10T06:40:01.349Z,11.60
2023-03-10T06:41:36.178Z,11.67
2023-03-10T06:43:09.462Z,11.75
2023-03-10T06:44:42.597Z,11.89
2023-03-10T06:46:16.566Z,11.95
2023-03-10T06:47:49.776Z,12.06
2023-03-10T06:49:29.357Z,12.10
2023-03-10T06:51:02.749Z,12.19
2023-03-10T06:52:36.350Z,12.20
2023-03-10T06:54:09.765Z,12.24
2023-03-10T06:55:44.492Z,12.23
2023-03-10T06:57:19.900Z,12.29
2023-03-10T06:58:54.059Z,12.34
2023-03-10T07:00:28.591Z,12.40
2023-03-10T07:02:01.759Z,12.55
2023-03-10T07:03:35.628Z,12.69
2023-03-10T07:05:12.017Z,12.82
2023-03-10T07:06:45.423Z,12.93
2023-03-10T07:08:18.687Z,12.95
2023-03-10T07:09:54.216Z,12.93
2023-03-10T07:11:28.858Z,13.01
2023-03-10T07:13:03.253Z,13.13
2023-03-10T07:14:36.524Z,13.24
2023-03-10T07:16:10.166Z,13.36
2023-03-10T07:17:43.210Z,13.44
2023-03-10T07:19:16.438Z,13.63
2023-03-10T07:20:51.029Z,13.87
2023-03-10T07:22:24.223Z,14.08
2023-03-10T07:23:57.330Z,14.14
2023-03-10T07:25:30.914Z,14.08
2023-03-10T07:27:06.040Z,13.98
2023-03-10T07:28:40.080Z,13.92
2023-03-10T07:30:13.795Z,13.92
2023-03-10T07:31:47.163Z,13.97
2023-03-10T07:33:20.589Z,14.08
2023-03-10T07:34:53.966Z,14.26
2023-03-10T07:36:27.340Z,14.50
2023-03-10T07:38:00.571Z,14.78
2023-03-10T07:39:33.879Z,14.98
2023-03-10T07:41:11.281Z,15.26
2023-03-10T07:42:45.864Z,15.43
2023-03-10T07:44:21.891Z,15.67
2023-03-10T07:45:55.317Z,15.78
2023-03-10T07:47:28.903Z,15.84
2023-03-10T07:49:04.403Z,16.05
2023-03-10T07:50:37.854Z,16.26
2023-03-10T07:52:11.043Z,16.53
2023-03-10T07:53:44.353Z,16.70
2023-03-10T07:55:18.354Z,16.94
2023-03-10T07:56:51.618Z,17.00
2023-03-10T07:58:26.254Z,17.18
2023-03-10T07:59:59.465Z,17.30
2023-03-10T08:01:32.612Z,17.43
2023-03-10T08:03:05.969Z,17.55
2023-03-10T08:04:39.290Z,17.67
2023-03-10T08:06:17.881Z,17.75
2023-03-10T08:07:50.974Z,17.87
2023-03-10T08:09:24.797Z,17.77
2023-03-10T08:11:03.876Z,17.40
2023-03-10T08:12:37.351Z,17.47
2023-03-10T08:14:11.974Z,17.61
2023-03-10T08:15:45.648Z,17.65
2023-03-10T08:17:19.784Z,17.79
2023-03-10T08:18:53.531Z,17.91
2023-03-10T08:20:26.879Z,18.15
2023-03-10T08:22:02.910Z,18.42
2023-03-10T08:23:37.195Z,18.73
2023-03-10T08:25:12.559Z,19.12
2023-03-10T08:26:45.719Z,19.44
2023-03-10T08:28:21.939Z,19.76
2023-03-10T08:29:57.093Z,19.99
2023-03-10T08:31:30.313Z,20.18
2023-03-10T08:33:03.518Z,20.27
2023-03-10T08:34:37.463Z,20.53
2023-03-10T08:36:13.796Z,20.78
2023-03-10T08:37:47.189Z,20.97
2023-03-10T08:39:20.373Z,21.09
2023-03-10T08:40:53.728Z,21.09
2023-03-10T08:42:27.701Z,20.91
2023-03-10T08:44:01.376Z,21.02
2023-03-10T08:45:35.992Z,21.23
2023-03-10T08:47:09.633Z,21.26
2023-03-10T08:48:43.247Z,21.31
2023-03-10T08:50:16.617Z,21.47
2023-03-10T08:51:50.159Z,21.62
2023-03-10T08:53:23.586Z,21.76
2023-03-10T08:54:59.732Z,21.80
2023-03-10T08:56:32.999Z,21.79
2023-03-10T08:58:06.140Z,21.62
2023-03-10T08:59:39.575Z,21.60
2023-03-10T09:01:15.811Z,21.56
2023-03-10T09:02:49.060Z,21.55
2023-03-10T09:04:22.186Z,21.55
2023-03-10T09:05:56.168Z,21.59
2023-03-10T09:07:29.567Z,21.77
2023-03-10T09:09:03.100Z,21.97
2023-03-10T09:10:35.357Z,22.17
2023-03-10T09:12:09.426Z,22.41
2023-03-10T09:13:42.790Z,22.10
2023-03-10T09:15:16.031Z,22.26
2023-03-10T09:16:50.661Z,22.51
2023-03-10T09:18:24.362Z,22.99
2023-03-10T09:19:57.570Z,23.35
2023-03-10T09:21:33.565Z,23.47
2023-03-10T09:23:07.413Z,23.39
2023-03-10T09:24:40.891Z,23.39
2023-03-10T09:26:14.330Z,23.04
2023-03-10T09:27:47.701Z,22.77
2023-03-10T09:29:27.086Z,22.66
2023-03-10T09:31:12.866Z,22.55
2023-03-10T09:32:49.024Z,22.49
2023-03-10T09:34:22.230Z,22.39
2023-03-10T09:36:06.294Z,22.16
2023-03-10T09:37:39.958Z,21.94
2023-03-10T09:39:13.290Z,21.58
2023-03-10T09:40:51.730Z,20.71
2023-03-10T09:42:38.166Z,20.80
2023-03-10T09:44:26.650Z,20.93
2023-03-10T09:46:08.124Z,20.94
2023-03-10T09:47:50.933Z,21.16
2023-03-10T09:49:31.618Z,21.34
2023-03-10T09:51:13.281Z,21.34
2023-03-10T09:52:48.977Z,21.36
2023-03-10T09:54:35.129Z,21.31
2023-03-10T09:56:13.457Z,21.31
2023-03-10T09:57:49.942Z,21.30
2023-03-10T09:59:29.899Z,21.31
2023-03-10T10:01:05.025Z,21.32
2023-03-10T10:02:45.358Z,21.39
2023-03-10T10:04:24.508Z,21.52
2023-03-10T10:05:58.866Z,21.68
2023-03-10T10:07:42.699Z,21.77
2023-03-10T10:09:25.402Z,21.84
2023-03-10T10:11:00.868Z,21.97
2023-03-10T10:12:34.821Z,21.95
2023-03-10T10:14:28.558Z,21.90
2023-03-10T10:16:31.917Z,22.00
2023-03-10T10:18:20.037Z,22.09
2023-03-10T10:19:57.784Z,22.11
2023-03-10T10:21:42.843Z,22.18
2023-03-10T10:23:21.207Z,22.28
2023-03-10T10:25:12.264Z,22.38
2023-03-10T10:26:45.447Z,22.45
2023-03-10T10:28:25.182Z,22.43
2023-03-10T10:29:58.626Z,22.48
2023-03-10T10:31:35.907Z,22.55
2023-03-10T10:33:11.013Z,22.55
2023-03-10T10:34:45.527Z,22.52
2023-03-10T10:36:20.749Z,22.57
2023-03-10T10:38:00.987Z,22.78
2023-03-10T10:39:38.682Z,23.01
2023-03-10T10:41:19.726Z,23.08
2023-03-10T10:42:54.977Z,23.18
2023-03-10T10:44:28.305Z,23.27
2023-03-10T10:46:08.368Z,23.27
2023-03-10T10:47:49.865Z,23.32
2023-03-10T10:49:26.018Z,23.39
2023-03-10T10:50:59.496Z,23.49
2023-03-10T10:52:34.072Z,23.62
2023-03-10T10:54:28.422Z,23.51
2023-03-10T10:56:06.163Z,23.55
2023-03-10T10:57:46.162Z,23.60
2023-03-10T10:59:22.504Z,23.75
2023-03-10T11:00:58.653Z,23.78
2023-03-10T11:02:34.369Z,23.75
2023-03-10T11:04:09.322Z,23.78
2023-03-10T11:05:42.700Z,23.77
2023-03-10T11:07:19.627Z,23.77
2023-03-10T11:09:07.434Z,23.67
2023-03-10T11:10:42.671Z,23.75
2023-03-10T11:12:22.307Z,23.85
2023-03-10T11:14:25.866Z,23.88
2023-03-10T11:16:07.826Z,23.97
2023-03-10T11:17:46.679Z,23.88
2023-03-10T11:19:29.646Z,23.63
2023-03-10T11:21:12.601Z,23.75
2023-03-10T11:22:50.376Z,23.83
2023-03-10T11:24:32.526Z,23.74
2023-03-10T11:26:11.635Z,23.57
2023-03-10T11:27:50.338Z,23.61
2023-03-10T11:29:35.473Z,23.39
2023-03-10T11:31:22.533Z,23.33
2023-03-10T11:33:11.807Z,23.17
2023-03-10T11:34:50.364Z,23.02
2023-03-10T11:36:43.319Z,22.92
2023-03-10T11:38:34.277Z,22.91
2023-03-10T11:40:20.133Z,22.89
2023-03-10T11:42:01.114Z,22.90
2023-03-10T11:43:48.006Z,22.72
2023-03-10T11:45:30.442Z,22.80
2023-03-10T11:47:14.480Z,22.73
2023-03-10T11:49:00.685Z,22.62
2023-03-10T11:50:42.781Z,22.57
2023-03-10T11:52:20.121Z,22.50
2023-03-10T11:53:55.219Z,22.53
2023-03-10T11:55:31.749Z,22.44
2023-03-10T11:57:12.327Z,22.35
2023-03-10T11:58:49.790Z,22.25
2023-03-10T12:00:29.046Z,22.23
2023-03-10T12:02:11.377Z,22.24
2023-03-10T12:03:52.186Z,22.19
2023-03-10T12:05:27.635Z,22.08
2023-03-10T12:07:07.741Z,22.12
2023-03-10T12:08:42.273Z,22.11
2023-03-10T12:10:18.432Z,22.08
2023-03-10T12:11:54.406Z,22.13
2023-03-10T12:13:31.399Z,22.18
2023-03-10T12:15:12.664Z,22.20
2023-03-10T12:16:46.836Z,22.12
2023-03-10T12:18:20.445Z,21.97
2023-03-10T12:20:24.226Z,21.99
2023-03-10T12:22:25.573Z,22.04
2023-03-10T12:24:00.293Z,22.01
2023-03-10T12:25:49.772Z,21.84
2023-03-10T12:27:24.529Z,21.81
2023-03-10T12:29:25.565Z,21.73
2023-03-10T12:30:59.875Z,21.79
2023-03-10T12:32:48.340Z,21.83
2023-03-10T12:34:23.306Z,21.85
2023-03-10T12:36:02.532Z,21.92
2023-03-10T12:37:35.693Z,21.99
2023-03-10T12:39:33.732Z,22.06
2023-03-10T12:41:07.302Z,22.02
2023-03-10T12:42:45.706Z,21.94
2023-03-10T12:44:43.128Z,21.78
2023-03-10T12:46:20.813Z,21.84
2023-03-10T12:48:02.754Z,21.74
2023-03-10T12:49:40.161Z,21.60
2023-03-10T12:51:18.380Z,21.51
2023-03-10T12:52:58.388Z,21.47
2023-03-10T12:54:54.918Z,21.47
2023-03-10T12:56:39.865Z,21.55
2023-03-10T12:58:20.541Z,21.50
2023-03-10T13:00:01.730Z,21.45
2023-03-10T13:01:49.563Z,21.40
2023-03-10T13:03:32.195Z,21.42
2023-03-10T13:05:08.474Z,21.39
2023-03-10T13:06:42.163Z,21.38
2023-03-10T13:08:22.412Z,21.31
2023-03-10T13:09:57.215Z,21.22
2023-03-10T13:11:37.612Z,21.15
2023-03-10T13:13:17.672Z,21.13
2023-03-10T13:14:55.687Z,21.11
2023-03-10T13:16:29.284Z,21.16
2023-03-10T13:18:18.534Z,21.10
2023-03-10T13:20:00.995Z,21.05
2023-03-10T13:21:37.025Z,21.02
2023-03-10T13:23:22.110Z,20.94
2023-03-10T13:24:59.838Z,20.95
2023-03-10T13:26:33.060Z,20.96
2023-03-10T13:28:12.563Z,20.87
2023-03-10T13:29:57.253Z,20.93
2023-03-10T13:31:31.735Z,20.94
2023-03-10T13:33:05.234Z,20.83
2023-03-10T13:34:38.587Z,20.91
2023-03-10T13:36:22.758Z,20.94
2023-03-10T13:38:07.073Z,20.94
2023-03-10T13:39:40.425Z,20.93
2023-03-10T13:41:13.967Z,20.88
2023-03-10T13:42:49.019Z,20.86
2023-03-10T13:44:25.241Z,20.80
2023-03-10T13:46:01.192Z,20.59
2023-03-10T13:47:44.662Z,20.52
2023-03-10T13:49:20.239Z,20.40
2023-03-10T13:51:09.088Z,20.27
2023-03-10T13:52:53.433Z,20.23
2023-03-10T13:54:28.401Z,20.10
2023-03-10T13:56:09.968Z,20.03
2023-03-10T13:57:45.144Z,19.94
2023-03-10T13:59:23.111Z,19.75
2023-03-10T14:00:57.492Z,19.58
2023-03-10T14:02:35.148Z,19.38
2023-03-10T14:04:09.689Z,19.28
2023-03-10T14:05:45.972Z,19.10
2023-03-10T14:07:21.507Z,19.05
2023-03-10T14:08:54.934Z,19.04
2023-03-10T14:10:28.511Z,18.93
2023-03-10T14:12:01.619Z,18.99
2023-03-10T14:13:44.812Z,19.02
2023-03-10T14:15:27.011Z,19.07
2023-03-10T14:17:01.478Z,19.10
2023-03-10T14:18:37.804Z,19.09
2023-03-10T14:20:12.186Z,19.13
2023-03-10T14:21:59.973Z,19.11
2023-03-10T14:23:37.909Z,19.16
2023-03-10T14:25:14.564Z,19.22
2023-03-10T14:26:47.831Z,19.20
2023-03-10T14:28:25.691Z,19.18
2023-03-10T14:30:03.921Z,19.12
2023-03-10T14:31:37.820Z,19.01
2023-03-10T14:33:14.230Z,18.88
2023-03-10T14:34:49.488Z,18.88
2023-03-10T14:36:25.100Z,18.89
2023-03-10T14:37:58.951Z,18.83
2023-03-10T14:39:34.841Z,18.82
2023-03-10T14:41:08.366Z,18.74
2023-03-10T14:42:45.770Z,18.74
2023-03-10T14:44:19.027Z,18.75
2023-03-10T14:45:53.988Z,18.73
2023-03-10T14:47:27.404Z,18.77
2023-03-10T14:49:00.850Z,18.81
2023-03-10T14:50:35.643Z,18.85
2023-03-10T14:52:15.976Z,18.84
2023-03-10T14:53:49.158Z,18.80
2023-03-10T14:55:22.596Z,18.79
2023-03-10T14:56:59.134Z,18.90
2023-03-10T14:58:34.433Z,18.92
2023-03-10T15:00:13.553Z,18.92
2023-03-10T15:01:47.213Z,18.92
2023-03-10T15:03:20.490Z,18.96
2023-03-10T15:04:53.683Z,18.97
2023-03-10T15:06:28.354Z,19.00
2023-03-10T15:08:04.249Z,19.00
2023-03-10T15:09:38.392Z,18.95
2023-03-10T15:11:11.929Z,18.95
2023-03-10T15:12:45.685Z,18.92
2023-03-10T15:14:20.554Z,18.88
2023-03-10T15:15:53.843Z,18.90
2023-03-10T15:17:27.242Z,18.91
2023-03-10T15:19:00.409Z,18.93
2023-03-10T15:20:33.739Z,18.97
2023-03-10T15:22:08.311Z,19.06
2023-03-10T15:23:42.215Z,19.09
2023-03-10T15:25:17.535Z,19.06
2023-03-10T15:26:51.347Z,19.10
2023-03-10T15:28:24.664Z,19.13
2023-03-10T15:29:58.062Z,19.11
2023-03-10T15:31:31.346Z,19.08
2023-03-10T15:33:05.012Z,19.09
2023-03-10T15:34:38.177Z,19.07
2023-03-10T15:36:12.286Z,19.12
2023-03-10T15:37:46.938Z,19.16
2023-03-10T15:39:31.049Z,19.18
2023-03-10T15:41:05.766Z,19.14
2023-03-10T15:42:38.915Z,19.10
2023-03-10T15:44:12.045Z,19.04
2023-03-10T15:45:49.346Z,19.02
2023-03-10T15:47:22.486Z,18.99
2023-03-10T15:48:55.747Z,18.99
2023-03-10T15:50:29.172Z,18.98
2023-03-10T15:52:02.389Z,18.96
2023-03-10T15:53:37.285Z,18.93
2023-03-10T15:55:11.015Z,18.88
2023-03-10T15:56:44.174Z,18.87
2023-03-10T15:58:17.482Z,18.82
2023-03-10T15:59:50.873Z,18.75
2023-03-10T16:01:24.142Z,18.78
2023-03-10T16:02:57.467Z,18.78
2023-03-10T16:04:32.359Z,18.76
2023-03-10T16:06:06.822Z,18.76
2023-03-10T16:07:40.102Z,18.73
2023-03-10T16:09:15.103Z,18.74
2023-03-10T16:10:56.666Z,18.72
2023-03-10T16:12:29.824Z,18.70
2023-03-10T16:14:03.151Z,18.70
2023-03-10T16:15:39.559Z,18.67
2023-03-10T16:17:12.791Z,18.67
2023-03-10T16:18:47.114Z,18.64
2023-03-10T16:20:20.777Z,18.67
2023-03-10T16:21:54.282Z,18.66
2023-03-10T16:23:28.781Z,18.61
2023-03-10T16:25:03.624Z,18.63
2023-03-10T16:26:36.810Z,18.63
2023-03-10T16:28:09.923Z,18.63
2023-03-10T16:29:43.351Z,18.65
2023-03-10T16:31:19.724Z,18.63
2023-03-10T16:32:53.158Z,18.53
2023-03-10T16:34:26.469Z,18.47
2023-03-10T16:36:00.431Z,18.47
2023-03-10T16:37:33.627Z,18.44
2023-03-10T16:39:10.051Z,18.40
2023-03-10T16:40:50.293Z,18.37
2023-03-10T16:42:23.796Z,18.36
2023-03-10T16:43:56.924Z,18.37
2023-03-10T16:45:30.077Z,18.36
2023-03-10T16:47:03.313Z,18.33
2023-03-10T16:48:38.837Z,18.31
2023-03-10T16:50:14.353Z,18.29
2023-03-10T16:51:48.689Z,18.22
2023-03-10T16:53:21.833Z,18.17
2023-03-10T16:54:58.295Z,18.15
2023-03-10T16:56:33.649Z,18.17
2023-03-10T16:58:06.991Z,18.18
2023-03-10T16:59:41.010Z,18.17
2023-03-10T17:01:14.236Z,18.08
2023-03-10T17:02:47.599Z,18.05
2023-03-10T17:04:21.915Z,18.01
2023-03-10T17:05:55.019Z,17.95
2023-03-10T17:07:28.382Z,17.85
2023-03-10T17:09:02.160Z,17.72
2023-03-10T17:10:36.582Z,17.64
2023-03-10T17:12:11.209Z,17.60
2023-03-10T17:13:47.220Z,17.53
2023-03-10T17:15:20.500Z,17.50
2023-03-10T17:16:55.789Z,17.44
2023-03-10T17:18:28.912Z,17.38
2023-03-10T17:20:02.521Z,17.34
2023-03-10T17:21:39.350Z,17.28
2023-03-10T17:23:12.729Z,17.24
2023-03-10T17:24:45.892Z,17.19
2023-03-10T17:26:20.342Z,17.23
2023-03-10T17:27:54.948Z,17.23
2023-03-10T17:29:28.380Z,17.18
2023-03-10T17:31:00.562Z,17.07
2023-03-10T17:32:33.895Z,16.98
2023-03-10T17:34:10.500Z,16.99
2023-03-10T17:35:43.925Z,17.02
2023-03-10T17:37:17.130Z,17.02
2023-03-10T17:38:53.965Z,16.99
2023-03-10T17:40:27.164Z,17.00
2023-03-10T17:42:00.450Z,17.01
2023-03-10T17:43:35.598Z,16.96
2023-03-10T17:45:09.899Z,16.96
2023-03-10T17:46:43.268Z,16.88
2023-03-10T17:48:16.518Z,16.84
2023-03-10T17:49:49.997Z,16.79
2023-03-10T17:51:25.564Z,16.69
2023-03-10T17:52:58.707Z,16.58
2023-03-10T17:54:32.543Z,16.43
2023-03-10T17:56:06.951Z,16.31
2023-03-10T17:57:40.931Z,16.20
2023-03-10T17:59:16.376Z,16.06
2023-03-10T18:00:50.115Z,15.96
2023-03-10T18:02:23.398Z,15.82
2023-03-10T18:03:57.448Z,15.69
2023-03-10T18:05:30.865Z,15.56
2023-03-10T18:07:04.174Z,15.46
2023-03-10T18:08:37.313Z,15.35
2023-03-10T18:10:11.542Z,15.27
2023-03-10T18:11:44.846Z,15.16
2023-03-10T18:13:18.227Z,15.07
2023-03-10T18:14:52.791Z,14.98
2023-03-10T18:16:28.312Z,14.89
2023-03-10T18:18:01.843Z,14.90
2023-03-10T18:19:35.058Z,14.92
2023-03-10T18:21:09.971Z,14.96
2023-03-10T18:22:43.542Z,15.00
2023-03-10T18:24:16.902Z,14.99
2023-03-10T18:25:52.633Z,14.97
2023-03-10T18:27:26.484Z,15.02
2023-03-10T18:29:00.289Z,15.06
2023-03-10T18:30:34.928Z,15.14
2023-03-10T18:32:08.062Z,15.19
2023-03-10T18:33:41.296Z,15.21
2023-03-10T18:35:14.641Z,15.28
2023-03-10T18:36:47.986Z,15.31
2023-03-10T18:38:21.396Z,15.30
2023-03-10T18:39:54.566Z,15.30
2023-03-10T18:41:30.468Z,15.29
2023-03-10T18:43:03.547Z,15.26
2023-03-10T18:44:36.859Z,15.27
2023-03-10T18:46:11.391Z,15.26
2023-03-10T18:47:46.830Z,15.24
2023-03-10T18:49:20.186Z,15.19
2023-03-10T18:50:55.504Z,15.14
2023-03-10T18:52:29.118Z,15.05
2023-03-10T18:54:02.425Z,15.06
2023-03-10T18:55:35.576Z,15.03
2023-03-10T18:57:08.818Z,15.00
2023-03-10T18:58:42.022Z,14.96
2023-03-10T19:00:16.875Z,14.86
2023-03-10T19:01:51.847Z,14.92
2023-03-10T19:03:25.016Z,14.90
2023-03-10T19:05:00.786Z,14.86
2023-03-10T19:06:36.975Z,14.83
2023-03-10T19:08:10.973Z,14.79
2023-03-10T19:09:44.756Z,14.67
2023-03-10T19:11:18.334Z,14.49
2023-03-10T19:12:51.730Z,14.40
2023-03-10T19:14:24.979Z,14.35
2023-03-10T19:15:58.769Z,14.32
2023-03-10T19:17:34.464Z,14.25
2023-03-10T19:19:07.824Z,14.20
2023-03-10T19:20:40.936Z,14.18
2023-03-10T19:22:14.422Z,14.16
2023-03-10T19:23:47.518Z,14.13
2023-03-10T19:25:23.189Z,14.13
2023-03-10T19:26:56.611Z,14.12
2023-03-10T19:28:30.260Z,14.08
2023-03-10T19:30:03.499Z,14.04
2023-03-10T19:31:36.885Z,13.98
2023-03-10T19:33:11.863Z,13.95
2023-03-10T19:34:45.153Z,13.90
2023-03-10T19:36:18.407Z,13.89
2023-03-10T19:37:51.722Z,13.84
2023-03-10T19:39:24.923Z,13.78
2023-03-10T19:40:58.424Z,13.69
2023-03-10T19:42:31.667Z,13.61
2023-03-10T19:44:05.161Z,13.48
2023-03-10T19:45:38.292Z,13.44
2023-03-10T19:47:11.658Z,13.42
2023-03-10T19:48:46.275Z,13.44
2023-03-10T19:50:19.725Z,13.44
2023-03-10T19:51:53.021Z,13.36
2023-03-10T19:53:27.402Z,13.35
2023-03-10T19:55:00.535Z,13.35
2023-03-10T19:56:33.919Z,13.36
2023-03-10T19:58:07.108Z,13.37
2023-03-10T19:59:41.359Z,13.33
2023-03-10T20:01:15.314Z,13.31
2023-03-10T20:02:49.013Z,13.26
2023-03-10T20:04:23.617Z,13.27
2023-03-10T20:05:56.982Z,13.31
2023-03-10T20:07:30.120Z,13.35
2023-03-10T20:09:04.794Z,13.30
2023-03-10T20:10:37.944Z,13.31
2023-03-10T20:12:11.161Z,13.33
2023-03-10T20:13:44.794Z,13.35
2023-03-10T20:15:18.572Z,13.36
2023-03-10T20:16:52.312Z,13.40
2023-03-10T20:18:26.151Z,13.41
2023-03-10T20:20:00.982Z,13.44
2023-03-10T20:21:34.183Z,13.42
2023-03-10T20:23:07.874Z,13.43
2023-03-10T20:24:41.358Z,13.41
2023-03-10T20:26:15.635Z,13.39
2023-03-10T20:27:50.629Z,13.34
2023-03-10T20:29:23.869Z,13.31
2023-03-10T20:30:58.895Z,13.27
2023-03-10T20:32:32.284Z,13.16
2023-03-10T20:34:07.247Z,13.08
2023-03-10T20:35:42.342Z,12.93
2023-03-10T20:37:15.732Z,12.89
2023-03-10T20:38:49.206Z,12.81
2023-03-10T20:40:24.105Z,12.81